sensor_id;sensor_type;location;lat;lon;timestamp;temperature;humidity
3644;DHT22;1838;50.742;7.158;2022-08-01T00:00:06;23.80;99.90
3644;DHT22;1838;50.742;7.158;2022-08-01T00:02:32;23.80;99.90
3644;DHT22;1838;50.742;7.158;2022-08-01T00:04:58;23.80;99.90
3644;DHT22;1838;50.742;7.158;2022-08-01T00:07:25;23.70;99.90
3644;DHT22;1838;50.742;7.158;2022-08-01T00:09:51;23.70;99.90
3644;DHT22;1838;50.742;7.158;2022-08-01T00:12:17;23.80;99.90
3644;DHT22;1838;50.742;7.158;2022-08-01T00:14:42;23.80;99.90
3644;DHT22;1838;50.742;7.158;2022-08-01T00:17:08;23.80;99.90
3644;DHT22;1838;50.742;7.158;2022-08-01T00:19:33;23.70;99.90
3644;DHT22;1838;50.742;7.158;2022-08-01T00:21:59;23.60;99.90
3644;DHT22;1838;50.742;7.158;2022-08-01T00:24:24;23.60;99.90
3644;DHT22;1838;50.742;7.158;2022-08-01T00:26:50;23.50;99.90
3644;DHT22;1838;50.742;7.158;2022-08-01T00:29:15;23.60;99.90
3644;DHT22;1838;50.742;7.158;2022-08-01T00:31:41;23.60;99.90
3644;DHT22;1838;50.742;7.158;2022-08-01T00:34:06;23.60;99.90
3644;DHT22;1838;50.742;7.158;2022-08-01T00:36:32;23.60;99.90
3644;DHT22;1838;50.742;7.158;2022-08-01T00:38:57;23.60;99.90
3644;DHT22;1838;50.742;7.158;2022-08-01T00:41:23;23.60;99.90
3644;DHT22;1838;50.742;7.158;2022-08-01T00:43:49;23.50;99.90
3644;DHT22;1838;50.742;7.158;2022-08-01T00:46:14;23.50;99.90
3644;DHT22;1838;50.742;7.158;2022-08-01T00:48:40;23.40;99.90
3644;DHT22;1838;50.742;7.158;2022-08-01T00:51:05;23.40;99.90
3644;DHT22;1838;50.742;7.158;2022-08-01T00:53:32;23.30;99.90
3644;DHT22;1838;50.742;7.158;2022-08-01T00:55:59;23.20;99.90
3644;DHT22;1838;50.742;7.158;2022-08-01T00:58:25;23.20;99.90
3644;DHT22;1838;50.742;7.158;2022-08-01T01:00:50;23.20;99.90
3644;DHT22;1838;50.742;7.158;2022-08-01T01:03:16;23.20;99.90
3644;DHT22;1838;50.742;7.158;2022-08-01T01:08:46;23.10;99.90
3644;DHT22;1838;50.742;7.158;2022-08-01T01:11:26;23.20;99.90
3644;DHT22;1838;50.742;7.158;2022-08-01T01:13:59;23.20;99.90
3644;DHT22;1838;50.742;7.158;2022-08-01T01:16:27;23.10;99.90
3644;DHT22;1838;50.742;7.158;2022-08-01T01:19:01;23.20;99.90
3644;DHT22;1838;50.742;7.158;2022-08-01T01:21:56;23.10;99.90
3644;DHT22;1838;50.742;7.158;2022-08-01T01:27:57;23.00;99.90
3644;DHT22;1838;50.742;7.158;2022-08-01T01:30:28;22.90;99.90
3644;DHT22;1838;50.742;7.158;2022-08-01T01:32:59;22.90;99.90
3644;DHT22;1838;50.742;7.158;2022-08-01T01:35:29;22.90;99.90
3644;DHT22;1838;50.742;7.158;2022-08-01T01:38:01;22.90;99.90
3644;DHT22;1838;50.742;7.158;2022-08-01T01:40:29;22.90;99.90
3644;DHT22;1838;50.742;7.158;2022-08-01T01:42:56;22.90;99.90
3644;DHT22;1838;50.742;7.158;2022-08-01T01:45:23;22.90;99.90
3644;DHT22;1838;50.742;7.158;2022-08-01T01:47:49;22.80;99.90
3644;DHT22;1838;50.742;7.158;2022-08-01T01:50:16;22.80;99.90
3644;DHT22;1838;50.742;7.158;2022-08-01T01:52:44;22.80;99.90
3644;DHT22;1838;50.742;7.158;2022-08-01T01:55:11;22.80;99.90
3644;DHT22;1838;50.742;7.158;2022-08-01T01:57:39;22.70;99.90
3644;DHT22;1838;50.742;7.158;2022-08-01T02:00:06;22.70;99.90
3644;DHT22;1838;50.742;7.158;2022-08-01T02:02:35;22.70;99.90
3644;DHT22;1838;50.742;7.158;2022-08-01T02:05:01;22.60;99.90
3644;DHT22;1838;50.742;7.158;2022-08-01T02:07:28;22.60;99.90
3644;DHT22;1838;50.742;7.158;2022-08-01T02:09:54;22.60;99.90
3644;DHT22;1838;50.742;7.158;2022-08-01T02:12:21;22.60;99.90
3644;DHT22;1838;50.742;7.158;2022-08-01T02:14:48;22.50;99.90
3644;DHT22;1838;50.742;7.158;2022-08-01T02:17:17;22.60;99.90
3644;DHT22;1838;50.742;7.158;2022-08-01T02:19:44;22.60;99.90
3644;DHT22;1838;50.742;7.158;2022-08-01T02:22:12;22.50;99.90
3644;DHT22;1838;50.742;7.158;2022-08-01T02:24:49;22.50;99.90
3644;DHT22;1838;50.742;7.158;2022-08-01T02:27:20;22.50;99.90
3644;DHT22;1838;50.742;7.158;2022-08-01T02:29:58;22.50;99.90
3644;DHT22;1838;50.742;7.158;2022-08-01T02:32:34;22.50;99.90
3644;DHT22;1838;50.742;7.158;2022-08-01T02:35:02;22.40;99.90
3644;DHT22;1838;50.742;7.158;2022-08-01T02:37:32;22.40;99.90
3644;DHT22;1838;50.742;7.158;2022-08-01T02:39:59;22.40;99.90
3644;DHT22;1838;50.742;7.158;2022-08-01T02:42:28;22.30;99.90
3644;DHT22;1838;50.742;7.158;2022-08-01T02:44:56;22.30;99.90
3644;DHT22;1838;50.742;7.158;2022-08-01T02:47:22;22.30;99.90
3644;DHT22;1838;50.742;7.158;2022-08-01T02:49:50;22.20;99.90
3644;DHT22;1838;50.742;7.158;2022-08-01T02:52:18;22.20;99.90
3644;DHT22;1838;50.742;7.158;2022-08-01T02:54:49;22.20;99.90
3644;DHT22;1838;50.742;7.158;2022-08-01T02:57:16;22.20;99.90
3644;DHT22;1838;50.742;7.158;2022-08-01T02:59:42;22.20;99.90
3644;DHT22;1838;50.742;7.158;2022-08-01T03:02:09;22.20;99.90
3644;DHT22;1838;50.742;7.158;2022-08-01T03:04:38;22.10;99.90
3644;DHT22;1838;50.742;7.158;2022-08-01T03:07:06;22.10;99.90
3644;DHT22;1838;50.742;7.158;2022-08-01T03:09:36;22.10;99.90
3644;DHT22;1838;50.742;7.158;2022-08-01T03:12:05;22.20;99.90
3644;DHT22;1838;50.742;7.158;2022-08-01T03:14:35;22.20;99.90
3644;DHT22;1838;50.742;7.158;2022-08-01T03:17:02;22.20;99.90
3644;DHT22;1838;50.742;7.158;2022-08-01T03:19:30;22.20;99.90
3644;DHT22;1838;50.742;7.158;2022-08-01T03:21:57;22.20;99.90
3644;DHT22;1838;50.742;7.158;2022-08-01T03:24:28;22.20;99.90
3644;DHT22;1838;50.742;7.158;2022-08-01T03:26:56;22.20;99.90
3644;DHT22;1838;50.742;7.158;2022-08-01T03:29:25;22.20;99.90
3644;DHT22;1838;50.742;7.158;2022-08-01T03:31:53;22.20;99.90
3644;DHT22;1838;50.742;7.158;2022-08-01T03:34:19;22.20;99.90
3644;DHT22;1838;50.742;7.158;2022-08-01T03:36:49;22.20;99.90
3644;DHT22;1838;50.742;7.158;2022-08-01T03:39:18;22.20;99.90
3644;DHT22;1838;50.742;7.158;2022-08-01T03:41:51;22.30;99.90
3644;DHT22;1838;50.742;7.158;2022-08-01T03:44:24;22.30;99.90
3644;DHT22;1838;50.742;7.158;2022-08-01T03:46:56;22.30;99.90
3644;DHT22;1838;50.742;7.158;2022-08-01T03:49:28;22.40;99.90
3644;DHT22;1838;50.742;7.158;2022-08-01T03:51:55;22.30;99.90
3644;DHT22;1838;50.742;7.158;2022-08-01T03:54:24;22.30;99.90
3644;DHT22;1838;50.742;7.158;2022-08-01T03:56:51;22.30;99.90
3644;DHT22;1838;50.742;7.158;2022-08-01T03:59:17;22.20;99.90
3644;DHT22;1838;50.742;7.158;2022-08-01T04:01:44;22.20;99.90
3644;DHT22;1838;50.742;7.158;2022-08-01T04:04:10;22.20;99.90
3644;DHT22;1838;50.742;7.158;2022-08-01T04:06:40;22.20;99.90
3644;DHT22;1838;50.742;7.158;2022-08-01T04:09:09;22.20;99.90
3644;DHT22;1838;50.742;7.158;2022-08-01T04:11:36;22.30;99.90
3644;DHT22;1838;50.742;7.158;2022-08-01T04:14:02;22.20;99.90
3644;DHT22;1838;50.742;7.158;2022-08-01T04:16:28;22.10;99.90
3644;DHT22;1838;50.742;7.158;2022-08-01T04:18:54;22.10;99.90
3644;DHT22;1838;50.742;7.158;2022-08-01T04:21:23;22.10;99.90
3644;DHT22;1838;50.742;7.158;2022-08-01T04:23:51;22.20;99.90
3644;DHT22;1838;50.742;7.158;2022-08-01T04:26:19;22.20;99.90
3644;DHT22;1838;50.742;7.158;2022-08-01T04:28:48;22.20;99.90
3644;DHT22;1838;50.742;7.158;2022-08-01T04:31:16;22.20;99.90
3644;DHT22;1838;50.742;7.158;2022-08-01T04:33:44;22.20;99.90
3644;DHT22;1838;50.742;7.158;2022-08-01T04:36:12;22.20;99.90
3644;DHT22;1838;50.742;7.158;2022-08-01T04:38:40;22.20;99.90
3644;DHT22;1838;50.742;7.158;2022-08-01T04:41:10;22.20;99.90
3644;DHT22;1838;50.742;7.158;2022-08-01T04:43:37;22.20;99.90
3644;DHT22;1838;50.742;7.158;2022-08-01T04:46:03;22.20;99.90
3644;DHT22;1838;50.742;7.158;2022-08-01T04:48:32;22.30;99.90
3644;DHT22;1838;50.742;7.158;2022-08-01T04:50:58;22.30;99.90
3644;DHT22;1838;50.742;7.158;2022-08-01T04:53:24;22.30;99.90
3644;DHT22;1838;50.742;7.158;2022-08-01T04:55:51;22.30;99.90
3644;DHT22;1838;50.742;7.158;2022-08-01T04:58:17;22.30;99.90
3644;DHT22;1838;50.742;7.158;2022-08-01T05:00:42;22.40;99.90
3644;DHT22;1838;50.742;7.158;2022-08-01T05:03:08;22.40;99.90
3644;DHT22;1838;50.742;7.158;2022-08-01T05:05:34;22.40;99.90
3644;DHT22;1838;50.742;7.158;2022-08-01T05:08:00;22.40;99.90
3644;DHT22;1838;50.742;7.158;2022-08-01T05:10:26;22.40;99.90
3644;DHT22;1838;50.742;7.158;2022-08-01T05:12:52;22.40;99.90
3644;DHT22;1838;50.742;7.158;2022-08-01T05:15:17;22.40;99.90
3644;DHT22;1838;50.742;7.158;2022-08-01T05:17:43;22.40;99.90
3644;DHT22;1838;50.742;7.158;2022-08-01T05:20:09;22.40;99.90
3644;DHT22;1838;50.742;7.158;2022-08-01T05:22:35;22.40;99.90
3644;DHT22;1838;50.742;7.158;2022-08-01T05:25:00;22.40;99.90
3644;DHT22;1838;50.742;7.158;2022-08-01T05:27:26;22.50;99.90
3644;DHT22;1838;50.742;7.158;2022-08-01T05:29:51;22.50;99.90
3644;DHT22;1838;50.742;7.158;2022-08-01T05:32:17;22.50;99.90
3644;DHT22;1838;50.742;7.158;2022-08-01T05:34:43;22.50;99.90
3644;DHT22;1838;50.742;7.158;2022-08-01T05:37:08;22.50;99.90
3644;DHT22;1838;50.742;7.158;2022-08-01T05:39:34;22.50;99.90
3644;DHT22;1838;50.742;7.158;2022-08-01T05:42:00;22.50;99.90
3644;DHT22;1838;50.742;7.158;2022-08-01T05:44:25;22.50;99.90
3644;DHT22;1838;50.742;7.158;2022-08-01T05:46:51;22.50;99.90
3644;DHT22;1838;50.742;7.158;2022-08-01T05:49:17;22.50;99.90
3644;DHT22;1838;50.742;7.158;2022-08-01T05:51:48;22.50;99.90
3644;DHT22;1838;50.742;7.158;2022-08-01T05:54:14;22.40;99.90
3644;DHT22;1838;50.742;7.158;2022-08-01T05:56:39;22.50;99.90
3644;DHT22;1838;50.742;7.158;2022-08-01T05:59:05;22.50;99.90
3644;DHT22;1838;50.742;7.158;2022-08-01T06:01:31;22.50;99.90
3644;DHT22;1838;50.742;7.158;2022-08-01T06:03:57;22.50;99.90
3644;DHT22;1838;50.742;7.158;2022-08-01T06:06:22;22.40;99.90
3644;DHT22;1838;50.742;7.158;2022-08-01T06:08:48;22.50;99.90
3644;DHT22;1838;50.742;7.158;2022-08-01T06:11:14;22.60;99.90
3644;DHT22;1838;50.742;7.158;2022-08-01T06:13:40;22.60;99.90
3644;DHT22;1838;50.742;7.158;2022-08-01T06:16:06;22.50;99.90
3644;DHT22;1838;50.742;7.158;2022-08-01T06:18:31;22.50;99.90
3644;DHT22;1838;50.742;7.158;2022-08-01T06:20:57;22.50;99.90
3644;DHT22;1838;50.742;7.158;2022-08-01T06:23:22;22.50;99.90
3644;DHT22;1838;50.742;7.158;2022-08-01T06:25:51;22.50;99.90
3644;DHT22;1838;50.742;7.158;2022-08-01T06:28:17;22.50;99.90
3644;DHT22;1838;50.742;7.158;2022-08-01T06:30:42;22.60;99.90
3644;DHT22;1838;50.742;7.158;2022-08-01T06:33:08;22.60;99.90
3644;DHT22;1838;50.742;7.158;2022-08-01T06:35:33;22.60;99.90
3644;DHT22;1838;50.742;7.158;2022-08-01T06:37:59;22.60;99.90
3644;DHT22;1838;50.742;7.158;2022-08-01T06:40:25;22.70;99.90
3644;DHT22;1838;50.742;7.158;2022-08-01T06:42:50;22.70;99.90
3644;DHT22;1838;50.742;7.158;2022-08-01T06:45:16;22.80;99.90
3644;DHT22;1838;50.742;7.158;2022-08-01T06:47:43;22.80;99.90
3644;DHT22;1838;50.742;7.158;2022-08-01T06:50:10;22.90;99.90
3644;DHT22;1838;50.742;7.158;2022-08-01T06:52:36;22.90;99.90
3644;DHT22;1838;50.742;7.158;2022-08-01T06:55:03;22.90;99.90
3644;DHT22;1838;50.742;7.158;2022-08-01T06:57:29;22.90;99.90
3644;DHT22;1838;50.742;7.158;2022-08-01T06:59:55;23.00;99.90
3644;DHT22;1838;50.742;7.158;2022-08-01T07:02:21;23.00;99.90
3644;DHT22;1838;50.742;7.158;2022-08-01T07:04:47;23.10;99.90
3644;DHT22;1838;50.742;7.158;2022-08-01T07:07:12;23.10;99.90
3644;DHT22;1838;50.742;7.158;2022-08-01T07:09:38;23.10;99.90
3644;DHT22;1838;50.742;7.158;2022-08-01T07:12:06;23.20;99.90
3644;DHT22;1838;50.742;7.158;2022-08-01T07:14:32;23.20;99.90
3644;DHT22;1838;50.742;7.158;2022-08-01T07:16:57;23.20;99.90
3644;DHT22;1838;50.742;7.158;2022-08-01T07:19:23;23.30;99.90
3644;DHT22;1838;50.742;7.158;2022-08-01T07:21:48;23.30;99.90
3644;DHT22;1838;50.742;7.158;2022-08-01T07:24:14;23.30;99.90
3644;DHT22;1838;50.742;7.158;2022-08-01T07:26:42;23.40;99.90
3644;DHT22;1838;50.742;7.158;2022-08-01T07:29:08;23.40;99.90
3644;DHT22;1838;50.742;7.158;2022-08-01T07:31:33;23.50;99.90
3644;DHT22;1838;50.742;7.158;2022-08-01T07:33:59;23.60;99.90
3644;DHT22;1838;50.742;7.158;2022-08-01T07:36:24;23.70;99.90
3644;DHT22;1838;50.742;7.158;2022-08-01T07:38:50;23.70;99.90
3644;DHT22;1838;50.742;7.158;2022-08-01T07:41:15;23.70;99.90
3644;DHT22;1838;50.742;7.158;2022-08-01T07:43:41;23.80;99.90
3644;DHT22;1838;50.742;7.158;2022-08-01T07:46:06;23.90;99.90
3644;DHT22;1838;50.742;7.158;2022-08-01T07:48:33;24.00;99.90
3644;DHT22;1838;50.742;7.158;2022-08-01T07:50:58;24.10;99.90
3644;DHT22;1838;50.742;7.158;2022-08-01T07:53:24;24.40;99.90
3644;DHT22;1838;50.742;7.158;2022-08-01T07:55:50;24.60;99.90
3644;DHT22;1838;50.742;7.158;2022-08-01T07:58:16;24.80;99.90
3644;DHT22;1838;50.742;7.158;2022-08-01T08:00:42;25.10;99.90
3644;DHT22;1838;50.742;7.158;2022-08-01T08:03:07;25.20;99.90
3644;DHT22;1838;50.742;7.158;2022-08-01T08:05:33;25.40;99.90
3644;DHT22;1838;50.742;7.158;2022-08-01T08:08:05;25.50;99.90
3644;DHT22;1838;50.742;7.158;2022-08-01T08:10:32;25.60;99.90
3644;DHT22;1838;50.742;7.158;2022-08-01T08:12:57;25.70;99.90
3644;DHT22;1838;50.742;7.158;2022-08-01T08:15:23;25.80;99.90
3644;DHT22;1838;50.742;7.158;2022-08-01T08:17:49;25.90;99.90
3644;DHT22;1838;50.742;7.158;2022-08-01T08:20:14;25.90;99.90
3644;DHT22;1838;50.742;7.158;2022-08-01T08:22:40;25.90;99.90
3644;DHT22;1838;50.742;7.158;2022-08-01T08:25:06;25.90;99.90
3644;DHT22;1838;50.742;7.158;2022-08-01T08:27:32;25.80;99.90
3644;DHT22;1838;50.742;7.158;2022-08-01T08:29:58;25.90;99.90
3644;DHT22;1838;50.742;7.158;2022-08-01T08:32:24;25.80;99.90
3644;DHT22;1838;50.742;7.158;2022-08-01T08:34:49;25.80;99.90
3644;DHT22;1838;50.742;7.158;2022-08-01T08:37:15;26.00;99.90
3644;DHT22;1838;50.742;7.158;2022-08-01T08:39:42;26.00;99.90
3644;DHT22;1838;50.742;7.158;2022-08-01T08:42:09;26.20;99.90
3644;DHT22;1838;50.742;7.158;2022-08-01T08:44:34;26.30;99.90
3644;DHT22;1838;50.742;7.158;2022-08-01T08:47:01;26.30;99.90
3644;DHT22;1838;50.742;7.158;2022-08-01T08:49:30;26.40;99.90
3644;DHT22;1838;50.742;7.158;2022-08-01T08:51:59;26.30;99.90
3644;DHT22;1838;50.742;7.158;2022-08-01T08:54:27;26.40;99.90
3644;DHT22;1838;50.742;7.158;2022-08-01T08:56:53;26.40;99.90
3644;DHT22;1838;50.742;7.158;2022-08-01T08:59:19;26.40;99.90
3644;DHT22;1838;50.742;7.158;2022-08-01T09:01:46;26.40;99.90
3644;DHT22;1838;50.742;7.158;2022-08-01T09:04:12;26.40;99.90
3644;DHT22;1838;50.742;7.158;2022-08-01T09:06:38;26.30;99.90
3644;DHT22;1838;50.742;7.158;2022-08-01T09:09:04;26.30;99.90
3644;DHT22;1838;50.742;7.158;2022-08-01T09:11:31;26.30;99.90
3644;DHT22;1838;50.742;7.158;2022-08-01T09:14:14;26.30;99.90
3644;DHT22;1838;50.742;7.158;2022-08-01T09:16:57;26.30;99.90
3644;DHT22;1838;50.742;7.158;2022-08-01T09:19:23;26.30;99.90
3644;DHT22;1838;50.742;7.158;2022-08-01T09:22:00;26.40;99.90
3644;DHT22;1838;50.742;7.158;2022-08-01T09:24:27;26.50;99.90
3644;DHT22;1838;50.742;7.158;2022-08-01T09:26:53;26.60;99.90
3644;DHT22;1838;50.742;7.158;2022-08-01T09:29:22;26.70;99.90
3644;DHT22;1838;50.742;7.158;2022-08-01T09:31:48;26.80;99.90
3644;DHT22;1838;50.742;7.158;2022-08-01T09:34:16;27.10;99.90
3644;DHT22;1838;50.742;7.158;2022-08-01T09:36:47;27.20;99.90
3644;DHT22;1838;50.742;7.158;2022-08-01T09:39:27;27.30;99.90
3644;DHT22;1838;50.742;7.158;2022-08-01T09:41:56;27.30;99.90
3644;DHT22;1838;50.742;7.158;2022-08-01T09:44:44;27.40;99.90
3644;DHT22;1838;50.742;7.158;2022-08-01T09:47:11;27.70;99.90
3644;DHT22;1838;50.742;7.158;2022-08-01T09:49:38;27.90;99.90
3644;DHT22;1838;50.742;7.158;2022-08-01T09:52:19;28.10;99.90
3644;DHT22;1838;50.742;7.158;2022-08-01T09:54:56;28.40;99.90
3644;DHT22;1838;50.742;7.158;2022-08-01T09:57:22;28.30;99.90
3644;DHT22;1838;50.742;7.158;2022-08-01T09:59:49;28.30;99.90
3644;DHT22;1838;50.742;7.158;2022-08-01T10:04:53;27.60;99.90
3644;DHT22;1838;50.742;7.158;2022-08-01T10:07:19;27.70;99.90
3644;DHT22;1838;50.742;7.158;2022-08-01T10:09:46;27.90;99.90
3644;DHT22;1838;50.742;7.158;2022-08-01T10:12:14;28.20;99.90
3644;DHT22;1838;50.742;7.158;2022-08-01T10:14:43;28.50;99.90
3644;DHT22;1838;50.742;7.158;2022-08-01T10:17:11;28.80;99.90
3644;DHT22;1838;50.742;7.158;2022-08-01T10:19:40;29.10;99.90
3644;DHT22;1838;50.742;7.158;2022-08-01T10:22:08;29.30;99.90
3644;DHT22;1838;50.742;7.158;2022-08-01T10:24:37;29.30;99.90
3644;DHT22;1838;50.742;7.158;2022-08-01T10:27:07;29.60;99.90
3644;DHT22;1838;50.742;7.158;2022-08-01T10:29:46;30.00;99.90
3644;DHT22;1838;50.742;7.158;2022-08-01T10:32:12;30.40;99.90
3644;DHT22;1838;50.742;7.158;2022-08-01T10:34:38;30.70;99.90
3644;DHT22;1838;50.742;7.158;2022-08-01T10:37:05;31.00;99.90
3644;DHT22;1838;50.742;7.158;2022-08-01T10:39:31;30.90;99.90
3644;DHT22;1838;50.742;7.158;2022-08-01T10:41:58;30.70;99.90
3644;DHT22;1838;50.742;7.158;2022-08-01T10:44:25;30.50;99.90
3644;DHT22;1838;50.742;7.158;2022-08-01T10:46:56;30.50;99.90
3644;DHT22;1838;50.742;7.158;2022-08-01T10:49:26;30.30;99.90
3644;DHT22;1838;50.742;7.158;2022-08-01T10:51:53;30.10;99.90
3644;DHT22;1838;50.742;7.158;2022-08-01T10:54:18;30.00;99.90
3644;DHT22;1838;50.742;7.158;2022-08-01T10:56:49;29.70;99.90
3644;DHT22;1838;50.742;7.158;2022-08-01T10:59:26;29.70;99.90
3644;DHT22;1838;50.742;7.158;2022-08-01T11:02:00;29.70;99.90
3644;DHT22;1838;50.742;7.158;2022-08-01T11:04:49;29.70;99.90
3644;DHT22;1838;50.742;7.158;2022-08-01T11:07:18;29.60;99.90
3644;DHT22;1838;50.742;7.158;2022-08-01T11:09:47;29.50;99.90
3644;DHT22;1838;50.742;7.158;2022-08-01T11:12:15;29.40;99.90
3644;DHT22;1838;50.742;7.158;2022-08-01T11:17:32;29.70;99.90
3644;DHT22;1838;50.742;7.158;2022-08-01T11:20:10;29.90;99.90
3644;DHT22;1838;50.742;7.158;2022-08-01T11:25:24;30.40;98.80
3644;DHT22;1838;50.742;7.158;2022-08-01T11:30:54;31.20;97.60
3644;DHT22;1838;50.742;7.158;2022-08-01T11:38:41;31.60;93.90
3644;DHT22;1838;50.742;7.158;2022-08-01T11:44:00;31.40;93.60
3644;DHT22;1838;50.742;7.158;2022-08-01T11:46:45;31.10;93.60
3644;DHT22;1838;50.742;7.158;2022-08-01T11:49:31;30.90;93.90
3644;DHT22;1838;50.742;7.158;2022-08-01T11:52:05;30.90;93.80
3644;DHT22;1838;50.742;7.158;2022-08-01T11:54:37;31.00;94.30
3644;DHT22;1838;50.742;7.158;2022-08-01T11:57:08;31.00;93.20
3644;DHT22;1838;50.742;7.158;2022-08-01T11:59:40;31.00;93.30
3644;DHT22;1838;50.742;7.158;2022-08-01T12:02:16;30.30;92.30
3644;DHT22;1838;50.742;7.158;2022-08-01T12:04:53;30.00;93.50
3644;DHT22;1838;50.742;7.158;2022-08-01T12:07:19;29.70;94.10
3644;DHT22;1838;50.742;7.158;2022-08-01T12:09:46;29.30;95.50
3644;DHT22;1838;50.742;7.158;2022-08-01T12:12:14;29.00;96.80
3644;DHT22;1838;50.742;7.158;2022-08-01T12:14:42;28.80;97.60
3644;DHT22;1838;50.742;7.158;2022-08-01T12:17:08;28.50;98.00
3644;DHT22;1838;50.742;7.158;2022-08-01T12:19:33;28.40;98.10
3644;DHT22;1838;50.742;7.158;2022-08-01T12:22:12;28.30;98.60
3644;DHT22;1838;50.742;7.158;2022-08-01T12:24:40;28.20;98.60
3644;DHT22;1838;50.742;7.158;2022-08-01T12:27:08;28.10;99.20
3644;DHT22;1838;50.742;7.158;2022-08-01T12:29:36;28.10;99.50
3644;DHT22;1838;50.742;7.158;2022-08-01T12:32:03;28.20;99.90
3644;DHT22;1838;50.742;7.158;2022-08-01T12:34:29;28.20;99.90
3644;DHT22;1838;50.742;7.158;2022-08-01T12:36:57;28.30;99.90
3644;DHT22;1838;50.742;7.158;2022-08-01T12:39:30;28.60;99.90
3644;DHT22;1838;50.742;7.158;2022-08-01T12:41:55;28.80;99.90
3644;DHT22;1838;50.742;7.158;2022-08-01T12:44:21;29.20;99.90
3644;DHT22;1838;50.742;7.158;2022-08-01T12:46:47;29.50;99.00
3644;DHT22;1838;50.742;7.158;2022-08-01T12:49:13;29.70;97.70
3644;DHT22;1838;50.742;7.158;2022-08-01T12:51:38;29.80;97.50
3644;DHT22;1838;50.742;7.158;2022-08-01T12:54:04;29.70;96.90
3644;DHT22;1838;50.742;7.158;2022-08-01T12:56:33;29.60;96.70
3644;DHT22;1838;50.742;7.158;2022-08-01T12:58:59;29.70;96.90
3644;DHT22;1838;50.742;7.158;2022-08-01T13:01:26;29.70;96.70
3644;DHT22;1838;50.742;7.158;2022-08-01T13:04:02;29.80;96.20
3644;DHT22;1838;50.742;7.158;2022-08-01T13:06:29;29.90;95.50
3644;DHT22;1838;50.742;7.158;2022-08-01T13:09:04;30.00;95.40
3644;DHT22;1838;50.742;7.158;2022-08-01T13:11:30;29.90;95.00
3644;DHT22;1838;50.742;7.158;2022-08-01T13:13:57;29.90;94.90
3644;DHT22;1838;50.742;7.158;2022-08-01T13:16:25;30.00;95.10
3644;DHT22;1838;50.742;7.158;2022-08-01T13:18:54;30.10;95.20
3644;DHT22;1838;50.742;7.158;2022-08-01T13:24:11;30.20;94.10
3644;DHT22;1838;50.742;7.158;2022-08-01T13:26:44;30.30;93.70
3644;DHT22;1838;50.742;7.158;2022-08-01T13:29:12;30.40;92.70
3644;DHT22;1838;50.742;7.158;2022-08-01T13:31:39;30.50;91.40
3644;DHT22;1838;50.742;7.158;2022-08-01T13:34:05;30.60;89.40
3644;DHT22;1838;50.742;7.158;2022-08-01T13:36:31;30.70;88.10
3644;DHT22;1838;50.742;7.158;2022-08-01T13:38:58;30.80;87.70
3644;DHT22;1838;50.742;7.158;2022-08-01T13:41:43;30.90;86.10
3644;DHT22;1838;50.742;7.158;2022-08-01T13:44:09;31.10;84.50
3644;DHT22;1838;50.742;7.158;2022-08-01T13:46:37;30.90;86.80
3644;DHT22;1838;50.742;7.158;2022-08-01T13:49:04;30.60;88.10
3644;DHT22;1838;50.742;7.158;2022-08-01T13:51:30;30.30;88.70
3644;DHT22;1838;50.742;7.158;2022-08-01T13:53:56;30.10;89.60
3644;DHT22;1838;50.742;7.158;2022-08-01T13:56:22;29.90;90.00
3644;DHT22;1838;50.742;7.158;2022-08-01T13:58:48;29.60;90.60
3644;DHT22;1838;50.742;7.158;2022-08-01T14:01:13;29.50;91.00
3644;DHT22;1838;50.742;7.158;2022-08-01T14:03:39;29.50;91.30
3644;DHT22;1838;50.742;7.158;2022-08-01T14:06:05;29.50;91.30
3644;DHT22;1838;50.742;7.158;2022-08-01T14:08:31;29.50;91.40
3644;DHT22;1838;50.742;7.158;2022-08-01T14:10:56;29.50;91.50
3644;DHT22;1838;50.742;7.158;2022-08-01T14:13:27;29.50;91.50
3644;DHT22;1838;50.742;7.158;2022-08-01T14:15:52;29.40;91.30
3644;DHT22;1838;50.742;7.158;2022-08-01T14:18:18;29.30;91.60
3644;DHT22;1838;50.742;7.158;2022-08-01T14:20:44;29.20;91.60
3644;DHT22;1838;50.742;7.158;2022-08-01T14:23:09;28.90;91.80
3644;DHT22;1838;50.742;7.158;2022-08-01T14:25:39;28.80;92.50
3644;DHT22;1838;50.742;7.158;2022-08-01T14:28:05;28.60;92.80
3644;DHT22;1838;50.742;7.158;2022-08-01T14:30:31;28.70;92.50
3644;DHT22;1838;50.742;7.158;2022-08-01T14:32:57;28.70;91.10
3644;DHT22;1838;50.742;7.158;2022-08-01T14:35:23;28.70;90.60
3644;DHT22;1838;50.742;7.158;2022-08-01T14:37:48;28.60;89.40
3644;DHT22;1838;50.742;7.158;2022-08-01T14:40:14;28.50;90.10
3644;DHT22;1838;50.742;7.158;2022-08-01T14:42:39;28.70;88.40
3644;DHT22;1838;50.742;7.158;2022-08-01T14:45:06;28.70;86.70
3644;DHT22;1838;50.742;7.158;2022-08-01T14:47:43;28.80;86.80
3644;DHT22;1838;50.742;7.158;2022-08-01T14:50:11;28.90;87.40
3644;DHT22;1838;50.742;7.158;2022-08-01T14:52:38;29.00;87.00
3644;DHT22;1838;50.742;7.158;2022-08-01T14:55:09;29.20;86.80
3644;DHT22;1838;50.742;7.158;2022-08-01T14:57:35;29.20;85.70
3644;DHT22;1838;50.742;7.158;2022-08-01T15:00:01;29.10;85.50
3644;DHT22;1838;50.742;7.158;2022-08-01T15:02:28;29.20;85.90
3644;DHT22;1838;50.742;7.158;2022-08-01T15:04:53;29.30;86.70
3644;DHT22;1838;50.742;7.158;2022-08-01T15:07:19;29.40;86.60
3644;DHT22;1838;50.742;7.158;2022-08-01T15:09:44;29.50;85.70
3644;DHT22;1838;50.742;7.158;2022-08-01T15:12:10;29.50;85.50
3644;DHT22;1838;50.742;7.158;2022-08-01T15:14:36;29.60;85.80
3644;DHT22;1838;50.742;7.158;2022-08-01T15:17:19;29.70;86.40
3644;DHT22;1838;50.742;7.158;2022-08-01T15:19:50;29.80;85.60
3644;DHT22;1838;50.742;7.158;2022-08-01T15:22:16;30.00;83.30
3644;DHT22;1838;50.742;7.158;2022-08-01T15:24:42;30.00;83.00
3644;DHT22;1838;50.742;7.158;2022-08-01T15:27:08;30.00;82.30
3644;DHT22;1838;50.742;7.158;2022-08-01T15:29:35;29.80;82.50
3644;DHT22;1838;50.742;7.158;2022-08-01T15:32:02;29.90;82.70
3644;DHT22;1838;50.742;7.158;2022-08-01T15:34:28;29.90;82.30
3644;DHT22;1838;50.742;7.158;2022-08-01T15:36:54;29.90;82.30
3644;DHT22;1838;50.742;7.158;2022-08-01T15:39:19;30.00;80.70
3644;DHT22;1838;50.742;7.158;2022-08-01T15:41:45;30.00;80.40
3644;DHT22;1838;50.742;7.158;2022-08-01T15:44:10;30.10;80.00
3644;DHT22;1838;50.742;7.158;2022-08-01T15:46:36;30.10;79.10
3644;DHT22;1838;50.742;7.158;2022-08-01T15:49:03;30.10;78.40
3644;DHT22;1838;50.742;7.158;2022-08-01T15:51:29;30.00;79.10
3644;DHT22;1838;50.742;7.158;2022-08-01T15:53:55;30.00;77.80
3644;DHT22;1838;50.742;7.158;2022-08-01T15:56:20;29.90;77.50
3644;DHT22;1838;50.742;7.158;2022-08-01T15:58:46;30.00;77.00
3644;DHT22;1838;50.742;7.158;2022-08-01T16:01:11;29.90;75.90
3644;DHT22;1838;50.742;7.158;2022-08-01T16:03:37;29.70;75.80
3644;DHT22;1838;50.742;7.158;2022-08-01T16:06:03;29.70;76.50
3644;DHT22;1838;50.742;7.158;2022-08-01T16:08:28;29.70;76.40
3644;DHT22;1838;50.742;7.158;2022-08-01T16:10:54;29.70;75.90
3644;DHT22;1838;50.742;7.158;2022-08-01T16:13:19;29.70;75.70
3644;DHT22;1838;50.742;7.158;2022-08-01T16:15:45;29.60;75.80
3644;DHT22;1838;50.742;7.158;2022-08-01T16:18:11;29.50;75.50
3644;DHT22;1838;50.742;7.158;2022-08-01T16:20:38;29.50;75.70
3644;DHT22;1838;50.742;7.158;2022-08-01T16:23:03;29.30;75.40
3644;DHT22;1838;50.742;7.158;2022-08-01T16:25:29;29.30;76.10
3644;DHT22;1838;50.742;7.158;2022-08-01T16:27:55;29.30;76.00
3644;DHT22;1838;50.742;7.158;2022-08-01T16:30:20;29.30;74.90
3644;DHT22;1838;50.742;7.158;2022-08-01T16:32:46;29.10;75.90